Time;durP1;ratioP1;P1;durP2;ratioP2;P2;SDS_P1;SDS_P2;PMS_P1;PMS_P2;Temp;Humidity;BMP_temperature;BMP_pressure;BME280_temperature;BME280_humidity;BME280_pressure;Samples;Min_cycle;Max_cycle;Signal;HPM_P1;HPM_P2
2021/07/26 00:00:42;;;;;;;6.90;6.30;;;18.50;99.90;;;;;;5016203;28;20293;-62
2021/07/26 00:03:08;;;;;;;6.53;5.93;;;18.50;99.90;;;;;;5011477;28;20234;-61
2021/07/26 00:05:33;;;;;;;6.87;6.20;;;18.40;99.90;;;;;;5006631;28;20186;-61
2021/07/26 00:08:00;;;;;;;6.37;5.70;;;18.40;99.90;;;;;;5013173;28;20220;-61
2021/07/26 00:10:26;;;;;;;8.30;5.93;;;18.40;99.90;;;;;;5010440;28;20256;-62
2021/07/26 00:12:52;;;;;;;6.47;5.87;;;18.40;99.90;;;;;;5029925;28;20702;-61
2021/07/26 00:15:17;;;;;;;6.53;5.93;;;18.50;99.90;;;;;;5037292;28;20278;-62
2021/07/26 00:17:43;;;;;;;6.60;6.00;;;18.30;99.90;;;;;;5008106;28;20228;-62
2021/07/26 00:20:10;;;;;;;6.10;5.60;;;18.30;99.90;;;;;;5013003;28;20202;-62
2021/07/26 00:22:38;;;;;;;6.22;5.72;;;18.30;99.90;;;;;;5007166;28;20179;-61
2021/07/26 00:25:05;;;;;;;6.47;5.93;;;18.40;99.90;;;;;;5008130;28;20190;-63
2021/07/26 00:27:31;;;;;;;7.22;6.53;;;18.30;99.90;;;;;;5012290;28;20182;-62
2021/07/26 00:29:57;;;;;;;6.87;5.97;;;18.20;99.90;;;;;;5015310;28;20233;-62
2021/07/26 00:32:22;;;;;;;6.67;6.07;;;18.30;99.90;;;;;;5015068;28;20190;-61
2021/07/26 00:34:48;;;;;;;6.13;5.53;;;18.30;99.90;;;;;;5013297;28;20193;-61
2021/07/26 00:37:14;;;;;;;6.97;6.37;;;18.30;99.90;;;;;;5017295;28;20197;-61
2021/07/26 00:39:40;;;;;;;6.20;5.60;;;18.30;99.90;;;;;;5014380;28;20610;-64
2021/07/26 00:42:06;;;;;;;7.00;6.15;;;18.30;99.90;;;;;;5018877;28;20188;-60
2021/07/26 00:44:33;;;;;;;6.35;5.75;;;18.20;99.90;;;;;;5012818;28;20279;-62
2021/07/26 00:47:00;;;;;;;6.18;5.68;;;18.20;99.90;;;;;;5030647;28;20194;-61
2021/07/26 00:49:27;;;;;;;6.93;6.32;;;18.10;99.90;;;;;;5015881;28;20285;-61
2021/07/26 00:51:58;;;;;;;6.78;5.60;;;18.20;99.90;;;;;;5034055;28;20208;-61
2021/07/26 00:54:28;;;;;;;6.85;6.15;;;18.20;99.90;;;;;;5016013;28;20189;-61
2021/07/26 00:56:56;;;;;;;6.82;6.22;;;18.20;99.90;;;;;;5019601;28;20219;-61
2021/07/26 00:59:22;;;;;;;6.57;5.72;;;18.10;99.90;;;;;;5014027;28;20217;-61
2021/07/26 01:01:48;;;;;;;5.80;5.30;;;18.20;99.90;;;;;;5014724;28;20709;-61
2021/07/26 01:04:14;;;;;;;5.77;5.20;;;18.20;99.90;;;;;;5017958;28;20182;-61
2021/07/26 01:06:40;;;;;;;6.07;5.47;;;18.10;99.90;;;;;;5032851;28;20178;-61
2021/07/26 01:09:06;;;;;;;6.10;5.60;;;18.10;99.90;;;;;;5018134;28;20192;-61
2021/07/26 01:11:32;;;;;;;6.57;6.03;;;18.10;99.90;;;;;;5006893;28;20325;-61
2021/07/26 01:13:58;;;;;;;6.75;6.10;;;18.10;99.90;;;;;;5016046;28;20522;-61
2021/07/26 01:16:24;;;;;;;6.55;5.95;;;18.20;99.90;;;;;;5016526;28;20198;-61
2021/07/26 01:18:50;;;;;;;5.73;5.23;;;18.30;99.90;;;;;;5020742;28;20617;-61
2021/07/26 01:21:18;;;;;;;7.75;5.88;;;18.30;99.90;;;;;;5020536;28;20460;-61
2021/07/26 01:23:46;;;;;;;6.45;5.85;;;18.40;99.90;;;;;;5014551;28;20193;-62
2021/07/26 01:26:13;;;;;;;7.30;6.15;;;18.40;99.90;;;;;;5019046;28;20197;-61
2021/07/26 01:28:48;;;;;;;6.25;5.65;;;18.40;99.90;;;;;;5016023;28;20174;-62
2021/07/26 01:31:15;;;;;;;6.70;6.10;;;18.40;99.90;;;;;;5014161;28;20678;-64
2021/07/26 01:33:41;;;;;;;8.23;6.38;;;18.40;99.90;;;;;;5015412;28;20236;-63
2021/07/26 01:36:08;;;;;;;7.30;6.40;;;18.40;99.90;;;;;;5015211;28;20587;-61
2021/07/26 01:38:34;;;;;;;6.20;5.55;;;18.40;99.90;;;;;;5017316;28;20213;-62
2021/07/26 01:41:11;;;;;;;5.60;5.20;;;18.40;99.90;;;;;;5029515;28;20285;-61
2021/07/26 01:46:31;;;;;;;7.32;6.57;;;18.40;99.90;;;;;;5031344;28;20307;-59
2021/07/26 01:49:34;;;;;;;6.13;5.63;;;18.30;99.90;;;;;;5007942;28;20189;-60
2021/07/26 01:52:00;;;;;;;7.63;6.13;;;18.30;99.90;;;;;;5029456;28;20182;-60
2021/07/26 01:54:26;;;;;;;6.70;6.10;;;18.40;99.90;;;;;;5014504;28;20178;-59
2021/07/26 01:56:52;;;;;;;6.57;5.97;;;18.40;99.90;;;;;;5016448;28;20182;-59
2021/07/26 01:59:18;;;;;;;7.93;5.90;;;18.30;99.90;;;;;;5020384;28;20240;-60
2021/07/26 02:01:43;;;;;;;8.10;6.40;;;18.30;99.90;;;;;;5030995;28;20195;-59
2021/07/26 02:04:09;;;;;;;7.00;6.40;;;18.30;99.90;;;;;;5009572;28;20440;-60
2021/07/26 02:06:35;;;;;;;8.43;5.70;;;18.30;99.90;;;;;;5016139;28;20269;-59
2021/07/26 02:09:00;;;;;;;6.57;5.57;;;18.30;99.90;;;;;;5011263;28;20360;-60
2021/07/26 02:11:26;;;;;;;6.53;5.37;;;18.30;99.90;;;;;;5014362;28;20213;-60
2021/07/26 02:13:52;;;;;;;5.70;5.10;;;18.20;99.90;;;;;;5030899;28;20728;-60
2021/07/26 02:16:21;;;;;;;6.20;5.65;;;18.20;99.90;;;;;;5013963;28;20186;-60
2021/07/26 02:18:49;;;;;;;7.78;5.70;;;18.20;99.90;;;;;;5020561;28;20212;-60
2021/07/26 02:21:14;;;;;;;11.55;6.70;;;18.20;99.90;;;;;;5032987;28;20201;-60
2021/07/26 02:23:40;;;;;;;7.10;6.10;;;18.20;99.90;;;;;;5014131;28;20182;-60
2021/07/26 02:26:06;;;;;;;7.70;6.00;;;18.20;99.90;;;;;;5009112;28;20515;-60
2021/07/26 02:28:31;;;;;;;7.63;6.63;;;18.00;99.90;;;;;;5014201;28;20319;-59
2021/07/26 02:30:57;;;;;;;6.53;5.93;;;17.90;99.90;;;;;;5016207;28;20214;-61
2021/07/26 02:33:23;;;;;;;7.30;6.60;;;17.90;99.90;;;;;;5016087;28;20279;-61
2021/07/26 02:35:49;;;;;;;6.80;6.20;;;17.90;99.90;;;;;;5011989;28;20193;-61
2021/07/26 02:38:15;;;;;;;6.75;6.22;;;17.90;99.90;;;;;;5018839;28;20234;-61
2021/07/26 02:40:40;;;;;;;6.50;5.90;;;17.80;99.90;;;;;;5017476;28;20198;-61
2021/07/26 02:43:06;;;;;;;7.73;6.30;;;17.90;99.90;;;;;;5011566;28;20536;-62
2021/07/26 02:45:32;;;;;;;6.60;6.00;;;18.00;99.90;;;;;;5030534;28;20209;-61
2021/07/26 02:47:57;;;;;;;6.10;5.50;;;18.00;99.90;;;;;;5010512;28;20190;-61
2021/07/26 02:50:26;;;;;;;6.60;5.50;;;18.00;99.90;;;;;;5012761;28;20704;-62
2021/07/26 02:52:52;;;;;;;6.40;5.75;;;18.00;99.90;;;;;;5016001;28;20661;-61
2021/07/26 02:55:18;;;;;;;7.30;6.60;;;18.00;99.90;;;;;;5027839;28;20194;-62
2021/07/26 02:57:44;;;;;;;6.73;5.90;;;17.90;99.90;;;;;;5007786;28;20202;-63
2021/07/26 03:00:10;;;;;;;8.83;6.50;;;17.90;99.90;;;;;;5014695;28;20218;-63
2021/07/26 03:02:36;;;;;;;6.25;5.65;;;18.00;99.90;;;;;;5009803;28;20182;-61
2021/07/26 03:05:03;;;;;;;6.80;6.13;;;17.90;99.90;;;;;;5015913;28;20219;-61
2021/07/26 03:07:30;;;;;;;6.55;5.95;;;17.90;99.90;;;;;;5016392;28;20667;-63
2021/07/26 03:09:55;;;;;;;7.18;6.22;;;17.90;99.90;;;;;;5013204;28;20210;-60
2021/07/26 03:12:21;;;;;;;6.47;5.87;;;17.90;99.90;;;;;;5015561;28;20194;-62
2021/07/26 03:14:46;;;;;;;6.70;6.00;;;17.90;99.90;;;;;;5011957;28;20189;-61
2021/07/26 03:17:12;;;;;;;6.50;5.90;;;17.90;99.90;;;;;;5008354;28;20252;-61
2021/07/26 03:19:37;;;;;;;6.90;6.20;;;17.90;99.90;;;;;;5019037;28;20183;-62
2021/07/26 03:22:31;;;;;;;6.50;5.90;;;18.00;99.90;;;;;;5021094;28;20174;-61
2021/07/26 03:24:57;;;;;;;7.85;6.03;;;18.00;99.90;;;;;;5029551;28;20476;-60
2021/07/26 03:27:24;;;;;;;6.83;6.10;;;18.00;99.90;;;;;;5009656;28;20229;-62
2021/07/26 03:29:49;;;;;;;6.68;5.97;;;18.00;99.90;;;;;;5014981;28;20201;-61
2021/07/26 03:32:15;;;;;;;7.97;5.60;;;18.00;99.90;;;;;;5013568;28;20174;-61
2021/07/26 03:34:41;;;;;;;7.10;5.80;;;18.00;99.90;;;;;;5009525;28;20187;-61
2021/07/26 03:37:06;;;;;;;8.40;5.60;;;18.10;99.90;;;;;;5016823;28;20547;-61
2021/07/26 03:39:32;;;;;;;7.63;6.00;;;18.10;99.90;;;;;;5017789;28;20595;-63
2021/07/26 03:41:58;;;;;;;5.80;5.30;;;18.10;99.90;;;;;;5011186;28;20206;-61
2021/07/26 03:44:23;;;;;;;6.10;5.50;;;18.20;99.90;;;;;;5012202;28;20182;-61
2021/07/26 03:46:49;;;;;;;6.47;5.87;;;18.20;99.90;;;;;;5012954;28;20458;-65
2021/07/26 03:49:15;;;;;;;6.20;5.60;;;18.20;99.90;;;;;;5027595;28;20263;-61
2021/07/26 03:51:40;;;;;;;6.07;5.47;;;18.30;99.90;;;;;;5013797;28;20219;-63
2021/07/26 03:54:06;;;;;;;6.83;5.30;;;18.20;99.90;;;;;;5019978;28;20571;-61
2021/07/26 03:56:31;;;;;;;6.83;5.70;;;18.20;99.90;;;;;;5011093;28;20277;-61
2021/07/26 03:58:57;;;;;;;6.27;5.67;;;18.20;99.90;;;;;;5010281;28;20206;-61
2021/07/26 04:01:22;;;;;;;6.53;5.90;;;18.30;99.90;;;;;;5017944;28;20306;-64
2021/07/26 04:03:49;;;;;;;7.03;6.27;;;18.30;99.90;;;;;;5025039;28;20522;-60
2021/07/26 04:06:16;;;;;;;6.45;5.85;;;18.40;99.90;;;;;;5014960;28;20185;-63
2021/07/26 04:08:44;;;;;;;8.15;6.65;;;18.40;99.90;;;;;;5019051;28;20193;-61
2021/07/26 04:13:37;;;;;;;6.63;6.03;;;18.60;99.90;;;;;;5033679;28;20265;-61
2021/07/26 04:16:03;;;;;;;7.43;6.18;;;18.70;99.90;;;;;;5016601;28;20227;-63
2021/07/26 04:18:29;;;;;;;6.50;5.90;;;18.70;99.90;;;;;;5020500;28;20244;-62
2021/07/26 04:20:56;;;;;;;7.90;5.88;;;18.40;99.90;;;;;;5018483;28;20293;-61
2021/07/26 04:23:22;;;;;;;7.57;6.40;;;18.70;99.90;;;;;;5011523;28;20219;-64
2021/07/26 04:25:51;;;;;;;8.60;6.60;;;18.70;99.90;;;;;;5038072;28;20182;-61
2021/07/26 04:28:17;;;;;;;6.90;6.20;;;18.70;99.90;;;;;;5017433;28;20194;-61
2021/07/26 04:30:42;;;;;;;8.27;6.27;;;18.70;99.90;;;;;;5014051;28;20232;-61
2021/07/26 04:33:09;;;;;;;7.07;6.37;;;18.70;99.90;;;;;;5020935;28;20482;-62
2021/07/26 04:35:35;;;;;;;8.20;6.55;;;18.70;99.90;;;;;;5008438;28;20182;-62
2021/07/26 04:38:01;;;;;;;7.97;6.40;;;18.80;99.90;;;;;;5016007;28;20243;-61
2021/07/26 04:40:27;;;;;;;6.57;5.97;;;18.70;99.90;;;;;;5012001;28;20502;-61
2021/07/26 04:42:53;;;;;;;6.87;6.20;;;18.80;99.90;;;;;;5015227;28;20182;-61
2021/07/26 04:45:19;;;;;;;9.10;5.95;;;18.90;99.90;;;;;;5013449;28;20705;-61
2021/07/26 04:47:44;;;;;;;7.13;6.53;;;18.90;99.90;;;;;;5016380;28;20198;-62
2021/07/26 04:50:10;;;;;;;7.90;7.10;;;19.00;99.90;;;;;;5016475;28;20210;-62
2021/07/26 04:52:37;;;;;;;7.93;7.10;;;19.00;99.90;;;;;;5014252;28;20600;-61
2021/07/26 04:55:03;;;;;;;6.75;6.15;;;18.90;99.90;;;;;;5013931;28;20884;-67
2021/07/26 04:57:28;;;;;;;6.57;5.90;;;19.20;99.90;;;;;;5023680;28;20214;-64
2021/07/26 04:59:54;;;;;;;6.73;6.00;;;19.30;99.90;;;;;;5008279;28;20682;-62
2021/07/26 05:02:20;;;;;;;6.90;6.30;;;19.30;99.90;;;;;;5011082;28;20623;-61
2021/07/26 05:04:45;;;;;;;9.70;7.37;;;19.40;99.90;;;;;;5028259;28;20189;-61
2021/07/26 05:07:11;;;;;;;6.90;6.20;;;19.30;99.90;;;;;;5012581;28;20194;-64
2021/07/26 05:09:38;;;;;;;7.83;6.40;;;19.30;99.90;;;;;;5016058;28;20617;-65
2021/07/26 05:12:12;;;;;;;7.13;5.75;;;19.10;99.90;;;;;;5012096;28;20205;-62
2021/07/26 05:14:39;;;;;;;6.03;5.47;;;18.80;99.90;;;;;;5000556;28;20182;-60
2021/07/26 05:17:04;;;;;;;7.28;5.80;;;18.80;99.90;;;;;;5021368;28;20275;-60
2021/07/26 05:19:30;;;;;;;6.77;6.17;;;18.70;99.90;;;;;;5009114;28;20308;-59
2021/07/26 05:21:57;;;;;;;9.40;6.20;;;18.70;99.90;;;;;;5007016;28;20248;-58
2021/07/26 05:24:24;;;;;;;6.00;5.40;;;18.70;99.90;;;;;;5011971;28;20186;-58
2021/07/26 05:27:03;;;;;;;8.05;6.20;;;18.70;99.90;;;;;;5011596;28;20912;-56
2021/07/26 05:29:30;;;;;;;5.88;5.35;;;18.90;99.90;;;;;;5027350;28;20704;-57
2021/07/26 05:31:58;;;;;;;6.55;5.40;;;19.00;99.90;;;;;;5011193;28;20207;-57
2021/07/26 05:34:24;;;;;;;6.57;5.97;;;19.10;99.90;;;;;;5022082;28;20244;-57
2021/07/26 05:36:49;;;;;;;6.60;5.90;;;19.20;99.90;;;;;;5011201;28;20205;-57
2021/07/26 05:39:16;;;;;;;7.80;6.20;;;19.20;99.90;;;;;;5018516;28;20272;-57
2021/07/26 05:41:41;;;;;;;5.72;5.15;;;19.20;99.90;;;;;;5013358;28;20202;-56
2021/07/26 05:44:07;;;;;;;7.53;6.40;;;19.10;99.90;;;;;;5012473;28;20201;-57
2021/07/26 05:46:32;;;;;;;6.67;6.07;;;19.00;99.90;;;;;;5015769;28;20784;-57
2021/07/26 05:48:58;;;;;;;8.47;6.07;;;19.00;99.90;;;;;;5016455;28;20212;-57
2021/07/26 05:51:24;;;;;;;6.17;5.57;;;19.00;99.90;;;;;;5016443;28;20230;-59
2021/07/26 05:53:49;;;;;;;8.67;6.63;;;19.10;99.90;;;;;;5008562;28;20190;-59
2021/07/26 05:56:15;;;;;;;6.40;5.80;;;19.20;99.90;;;;;;5009647;28;20704;-58
2021/07/26 05:58:49;;;;;;;10.90;6.07;;;19.40;99.90;;;;;;5014954;28;20222;-59
2021/07/26 06:01:46;;;;;;;5.50;5.00;;;19.50;99.90;;;;;;5003101;28;20209;-55
2021/07/26 06:04:16;;;;;;;6.28;5.72;;;19.60;99.90;;;;;;5029503;28;20269;-55
2021/07/26 06:06:48;;;;;;;7.65;6.88;;;19.90;99.90;;;;;;5011210;28;20232;-56
2021/07/26 06:09:14;;;;;;;7.90;6.07;;;20.00;99.90;;;;;;5013985;28;20201;-55
2021/07/26 06:11:41;;;;;;;6.50;5.90;;;20.20;99.90;;;;;;5009645;28;20206;-56
2021/07/26 06:14:07;;;;;;;6.32;5.72;;;20.40;99.90;;;;;;5015253;28;20433;-54
2021/07/26 06:16:33;;;;;;;6.90;4.63;;;20.50;99.90;;;;;;5007033;28;20186;-56
2021/07/26 06:19:08;;;;;;;8.20;5.47;;;20.70;99.90;;;;;;5013286;28;20602;-55
2021/07/26 06:21:34;;;;;;;10.57;5.78;;;20.90;99.90;;;;;;5012930;28;20594;-54
2021/07/26 06:24:00;;;;;;;8.83;4.63;;;21.10;99.90;;;;;;5010680;28;20178;-56
2021/07/26 06:26:25;;;;;;;4.80;4.30;;;21.10;99.90;;;;;;5014505;28;20190;-57
2021/07/26 06:28:52;;;;;;;5.37;4.87;;;21.00;99.90;;;;;;5016453;28;20190;-57
2021/07/26 06:31:18;;;;;;;5.03;4.57;;;21.10;99.90;;;;;;5029526;28;20351;-56
2021/07/26 06:33:43;;;;;;;4.93;4.43;;;21.40;99.90;;;;;;5005939;28;20273;-57
2021/07/26 06:36:09;;;;;;;8.70;8.00;;;21.40;99.90;;;;;;5022816;28;20197;-57
2021/07/26 06:38:36;;;;;;;6.17;5.57;;;21.50;99.90;;;;;;5021648;28;20774;-56
2021/07/26 06:41:02;;;;;;;6.22;5.22;;;21.70;99.90;;;;;;5009992;28;20506;-56
2021/07/26 06:43:27;;;;;;;5.53;5.00;;;21.90;99.90;;;;;;5007814;28;20328;-56
2021/07/26 06:45:53;;;;;;;5.67;5.00;;;22.10;99.90;;;;;;5011927;28;20216;-56
2021/07/26 06:48:18;;;;;;;5.43;4.30;;;22.20;99.90;;;;;;5009519;28;20221;-57
2021/07/26 06:50:44;;;;;;;4.53;4.10;;;22.50;99.90;;;;;;5016120;28;20202;-57
2021/07/26 06:53:09;;;;;;;7.10;5.63;;;23.00;99.90;;;;;;5010121;28;20517;-55
2021/07/26 06:55:38;;;;;;;5.27;4.60;;;23.40;99.90;;;;;;5012228;28;20190;-56
2021/07/26 06:58:05;;;;;;;4.90;4.50;;;23.60;99.90;;;;;;5014309;28;20236;-56
2021/07/26 07:00:31;;;;;;;5.40;4.47;;;23.80;99.90;;;;;;5007755;28;20483;-56
2021/07/26 07:02:57;;;;;;;5.73;5.13;;;24.10;99.90;;;;;;5011429;28;20473;-56
2021/07/26 07:05:23;;;;;;;4.10;3.80;;;24.40;99.90;;;;;;5009408;28;20473;-57
2021/07/26 07:07:48;;;;;;;4.03;3.63;;;24.90;99.90;;;;;;5027219;28;20191;-56
2021/07/26 07:10:14;;;;;;;3.83;3.53;;;25.40;99.40;;;;;;5020352;28;20603;-58
2021/07/26 07:12:40;;;;;;;4.23;3.93;;;27.00;95.70;;;;;;5008412;28;20182;-55
2021/07/26 07:15:06;;;;;;;4.07;3.50;;;29.00;92.70;;;;;;5014435;28;20185;-55
2021/07/26 07:17:32;;;;;;;3.87;3.57;;;30.10;86.30;;;;;;5006767;28;20199;-56
2021/07/26 07:19:58;;;;;;;3.43;3.13;;;30.50;84.00;;;;;;5010818;28;20474;-55
2021/07/26 07:22:24;;;;;;;4.03;3.60;;;31.40;79.50;;;;;;5006272;28;20196;-56
2021/07/26 07:24:49;;;;;;;3.97;3.30;;;32.50;74.90;;;;;;5005965;28;20436;-56
2021/07/26 07:27:15;;;;;;;4.57;4.17;;;33.80;70.40;;;;;;5013188;28;20286;-56
2021/07/26 07:29:41;;;;;;;3.83;3.53;;;34.50;66.20;;;;;;5015190;28;20186;-56
2021/07/26 07:32:09;;;;;;;3.30;3.00;;;33.50;66.80;;;;;;5012822;28;20799;-57
2021/07/26 07:34:35;;;;;;;4.13;3.83;;;34.50;62.50;;;;;;5012245;28;20236;-56
2021/07/26 07:37:03;;;;;;;4.97;3.53;;;34.70;60.80;;;;;;5014111;28;20460;-55
2021/07/26 07:39:30;;;;;;;3.87;3.10;;;33.80;62.40;;;;;;5014728;28;20472;-57
2021/07/26 07:41:56;;;;;;;3.30;3.00;;;34.50;59.70;;;;;;5008835;28;20465;-55
2021/07/26 07:44:21;;;;;;;3.50;3.20;;;34.10;59.70;;;;;;5011525;28;20467;-55
2021/07/26 07:46:47;;;;;;;3.47;3.17;;;35.50;56.80;;;;;;5015690;28;20643;-56
2021/07/26 07:49:12;;;;;;;3.40;3.10;;;37.00;55.10;;;;;;5011822;28;20666;-55
2021/07/26 07:51:38;;;;;;;3.57;3.27;;;36.40;54.80;;;;;;5011746;28;20264;-56
2021/07/26 07:54:03;;;;;;;3.47;3.20;;;36.20;54.20;;;;;;5013761;28;21898;-55
2021/07/26 07:56:29;;;;;;;3.90;3.60;;;36.60;54.30;;;;;;5012646;28;20221;-55
2021/07/26 07:58:59;;;;;;;3.50;3.00;;;36.80;53.80;;;;;;5015691;28;20635;-56
2021/07/26 08:01:32;;;;;;;4.40;3.10;;;37.10;52.60;;;;;;5016597;28;20205;-55
2021/07/26 08:04:00;;;;;;;3.20;2.90;;;36.90;52.90;;;;;;5009468;28;20436;-55
2021/07/26 08:06:26;;;;;;;4.50;3.30;;;36.40;52.60;;;;;;5009507;28;20432;-56
2021/07/26 08:08:51;;;;;;;4.27;3.63;;;36.80;51.60;;;;;;5027924;28;20463;-57
2021/07/26 08:11:17;;;;;;;3.67;3.30;;;35.70;53.20;;;;;;5009581;28;20229;-56
2021/07/26 08:13:43;;;;;;;4.10;3.70;;;35.60;53.10;;;;;;5025657;28;20189;-56
2021/07/26 08:16:08;;;;;;;3.90;3.60;;;35.70;53.70;;;;;;5026091;28;20624;-56
2021/07/26 08:18:34;;;;;;;4.40;3.93;;;35.30;54.50;;;;;;5027651;28;20281;-56
2021/07/26 08:21:01;;;;;;;2.83;2.63;;;35.20;54.10;;;;;;5011960;28;20213;-57
2021/07/26 08:23:26;;;;;;;4.93;3.57;;;34.70;54.90;;;;;;5010580;28;20186;-56
2021/07/26 08:25:52;;;;;;;4.33;4.03;;;34.30;54.90;;;;;;5022211;28;20479;-56
2021/07/26 08:28:18;;;;;;;3.67;3.37;;;33.50;56.10;;;;;;5012571;28;20198;-56
2021/07/26 08:30:44;;;;;;;4.40;3.53;;;32.80;58.60;;;;;;5006896;28;20818;-57
2021/07/26 08:33:11;;;;;;;4.53;3.50;;;32.90;58.10;;;;;;5012932;28;20190;-57
2021/07/26 08:35:37;;;;;;;3.73;3.43;;;32.50;58.70;;;;;;5012208;28;20456;-56
2021/07/26 08:38:04;;;;;;;3.53;3.23;;;31.70;61.20;;;;;;5009164;28;20496;-56
2021/07/26 08:40:31;;;;;;;3.40;3.10;;;31.70;62.30;;;;;;5009616;28;20465;-56
2021/07/26 08:43:02;;;;;;;3.50;3.30;;;31.60;61.90;;;;;;5014857;28;20843;-56
2021/07/26 08:45:28;;;;;;;7.00;3.93;;;31.10;63.20;;;;;;5017842;28;20445;-55
2021/07/26 08:47:58;;;;;;;3.67;3.33;;;30.90;64.80;;;;;;5013060;28;20450;-55
2021/07/26 08:50:24;;;;;;;3.77;3.47;;;31.00;64.30;;;;;;5013520;28;20265;-56
2021/07/26 08:52:52;;;;;;;3.13;2.90;;;31.70;62.60;;;;;;5020403;28;21135;-56
2021/07/26 08:55:21;;;;;;;3.60;3.30;;;32.90;59.80;;;;;;5031425;28;20194;-56
2021/07/26 08:57:48;;;;;;;4.33;3.60;;;33.50;58.40;;;;;;5012623;28;20472;-55
2021/07/26 09:00:18;;;;;;;4.00;3.60;;;34.00;57.60;;;;;;5016421;28;20483;-56
2021/07/26 09:02:44;;;;;;;4.53;3.67;;;34.90;56.00;;;;;;5013245;28;20445;-57
2021/07/26 09:05:11;;;;;;;5.03;3.80;;;36.20;54.00;;;;;;5018539;28;20445;-56
2021/07/26 09:07:41;;;;;;;3.60;3.30;;;37.10;52.40;;;;;;5012608;28;20193;-56
2021/07/26 09:10:21;;;;;;;4.30;3.90;;;35.90;52.60;;;;;;5023656;28;20467;-57
2021/07/26 09:12:51;;;;;;;3.90;3.30;;;35.80;53.20;;;;;;5016121;28;21013;-57
2021/07/26 09:15:32;;;;;;;4.93;3.07;;;36.00;52.60;;;;;;5012326;28;20472;-57
2021/07/26 09:18:06;;;;;;;4.53;3.57;;;36.60;52.20;;;;;;5015118;28;20563;-56
2021/07/26 09:20:36;;;;;;;3.13;2.93;;;36.50;51.50;;;;;;5012036;28;20484;-56
2021/07/26 09:23:18;;;;;;;4.17;3.83;;;36.90;50.20;;;;;;5020642;28;20544;-56
2021/07/26 09:25:45;;;;;;;2.80;2.60;;;37.60;48.40;;;;;;5018878;28;20432;-56
2021/07/26 09:28:22;;;;;;;3.97;3.60;;;37.40;46.80;;;;;;5020661;28;20444;-56
2021/07/26 09:30:53;;;;;;;3.50;3.20;;;36.80;48.30;;;;;;5017803;28;20914;-57
2021/07/26 09:33:28;;;;;;;2.80;2.60;;;36.60;49.90;;;;;;5010470;28;21019;-55
2021/07/26 09:36:18;;;;;;;3.40;2.30;;;37.10;48.30;;;;;;5016445;28;20449;-57
2021/07/26 09:38:52;;;;;;;3.43;3.13;;;37.70;47.20;;;;;;5027894;28;20543;-56
2021/07/26 09:41:37;;;;;;;4.00;3.70;;;37.20;47.90;;;;;;5027045;28;20514;-56
2021/07/26 09:44:05;;;;;;;4.10;3.80;;;36.60;47.90;;;;;;5030256;28;20444;-56
2021/07/26 09:46:31;;;;;;;3.80;3.50;;;36.90;48.00;;;;;;5026401;28;20461;-55
2021/07/26 09:49:14;;;;;;;3.00;2.80;;;36.20;47.90;;;;;;5016234;28;20474;-56
2021/07/26 09:51:41;;;;;;;6.70;3.80;;;35.60;48.40;;;;;;5021417;28;20213;-56
2021/07/26 09:54:08;;;;;;;3.27;3.07;;;34.50;51.30;;;;;;5013885;28;20853;-56
2021/07/26 09:56:34;;;;;;;2.70;2.50;;;35.70;50.00;;;;;;5031099;28;20448;-55
2021/07/26 09:59:01;;;;;;;4.20;2.90;;;36.20;48.60;;;;;;5018387;28;20518;-56
2021/07/26 10:01:30;;;;;;;3.20;2.90;;;37.10;47.70;;;;;;5015296;28;20451;-56
2021/07/26 10:03:57;;;;;;;3.30;3.00;;;37.30;47.60;;;;;;5006902;28;20438;-56
2021/07/26 10:06:23;;;;;;;3.90;3.40;;;37.00;47.10;;;;;;5020684;28;20445;-56
2021/07/26 10:08:49;;;;;;;3.37;3.17;;;36.70;47.60;;;;;;5011314;28;20490;-56
2021/07/26 10:11:15;;;;;;;3.87;3.57;;;37.20;47.60;;;;;;5006386;28;20468;-56
2021/07/26 10:13:44;;;;;;;3.20;3.00;;;36.80;47.90;;;;;;5012089;28;20602;-56
2021/07/26 10:16:17;;;;;;;4.67;3.57;;;37.30;47.50;;;;;;5013172;28;20969;-56
2021/07/26 10:18:52;;;;;;;3.27;3.00;;;37.80;46.50;;;;;;5014918;28;20465;-56
2021/07/26 10:21:24;;;;;;;3.13;2.93;;;37.70;46.40;;;;;;5009304;28;20855;-56
2021/07/26 10:23:49;;;;;;;3.00;2.80;;;37.10;46.70;;;;;;5004911;28;20946;-55
2021/07/26 10:26:17;;;;;;;3.43;3.13;;;35.70;48.40;;;;;;5007647;28;20457;-56
2021/07/26 10:28:54;;;;;;;3.10;2.90;;;34.80;49.80;;;;;;5001634;28;20190;-55
2021/07/26 10:31:30;;;;;;;3.50;3.20;;;33.50;51.40;;;;;;5019387;28;20456;-56
2021/07/26 10:34:14;;;;;;;3.27;2.77;;;32.60;54.10;;;;;;5024976;28;20601;-55
2021/07/26 10:36:40;;;;;;;3.40;3.10;;;31.90;55.80;;;;;;5034277;28;20806;-56
2021/07/26 10:39:09;;;;;;;4.97;3.23;;;31.50;56.90;;;;;;5024933;28;20456;-56
2021/07/26 10:41:44;;;;;;;3.73;3.10;;;31.20;56.90;;;;;;5012099;28;20686;-55
2021/07/26 10:44:16;;;;;;;3.30;3.10;;;30.80;58.10;;;;;;5021708;28;20486;-55
2021/07/26 10:47:08;;;;;;;3.33;3.10;;;30.40;59.50;;;;;;5021257;28;20458;-56
2021/07/26 10:49:42;;;;;;;3.70;2.97;;;30.00;60.50;;;;;;5005435;28;20444;-56
2021/07/26 10:52:23;;;;;;;3.90;3.50;;;29.80;60.30;;;;;;5022650;28;20446;-56
2021/07/26 10:54:49;;;;;;;4.50;3.20;;;29.90;59.80;;;;;;5011640;28;20443;-56
2021/07/26 10:57:34;;;;;;;3.10;2.80;;;29.70;59.70;;;;;;5014830;28;20445;-56
2021/07/26 11:00:15;;;;;;;3.30;3.00;;;29.70;60.50;;;;;;5021383;28;20971;-56
2021/07/26 11:02:49;;;;;;;3.47;2.83;;;29.50;59.80;;;;;;5013766;28;20428;-57
2021/07/26 11:05:27;;;;;;;4.17;2.87;;;29.50;61.30;;;;;;5021910;28;20475;-57
2021/07/26 11:08:11;;;;;;;3.40;3.13;;;29.30;61.80;;;;;;5022986;28;20443;-57
2021/07/26 11:10:49;;;;;;;3.40;3.10;;;29.40;62.70;;;;;;5008727;28;20822;-55
2021/07/26 11:13:17;;;;;;;3.37;3.17;;;30.40;60.70;;;;;;5025468;28;20429;-56
2021/07/26 11:15:54;;;;;;;3.50;3.20;;;31.20;58.10;;;;;;5000225;28;20452;-57
2021/07/26 11:18:31;;;;;;;3.43;3.13;;;31.00;57.70;;;;;;5013060;28;20477;-57
2021/07/26 11:21:02;;;;;;;3.53;3.23;;;30.80;58.70;;;;;;5017015;28;20508;-57
2021/07/26 11:23:39;;;;;;;3.20;3.00;;;31.10;59.30;;;;;;5009746;28;20451;-58
2021/07/26 11:26:14;;;;;;;3.57;3.27;;;32.50;57.80;;;;;;5018702;28;20768;-58
2021/07/26 11:28:40;;;;;;;4.40;3.60;;;33.10;55.70;;;;;;5021040;28;20456;-58
2021/07/26 11:31:06;;;;;;;6.53;4.10;;;33.80;54.10;;;;;;5010536;28;20475;-58
2021/07/26 11:33:33;;;;;;;3.27;2.97;;;33.80;53.20;;;;;;5010435;28;20194;-57
2021/07/26 11:35:59;;;;;;;3.00;2.80;;;33.80;51.70;;;;;;5019882;28;20208;-58
2021/07/26 11:38:29;;;;;;;3.17;2.97;;;33.20;52.90;;;;;;5015959;28;20851;-57
2021/07/26 11:40:55;;;;;;;3.23;2.93;;;33.00;52.80;;;;;;5004937;28;20515;-57
2021/07/26 11:43:36;;;;;;;3.20;2.97;;;33.10;53.20;;;;;;5018984;28;20532;-56
2021/07/26 11:46:02;;;;;;;3.80;3.07;;;32.80;53.20;;;;;;5014825;28;20464;-56
2021/07/26 11:48:28;;;;;;;2.90;2.70;;;32.60;54.30;;;;;;5013838;28;21014;-58
2021/07/26 11:50:54;;;;;;;3.00;2.70;;;32.10;54.10;;;;;;5023830;28;20557;-58
2021/07/26 11:53:27;;;;;;;3.30;3.00;;;31.40;55.30;;;;;;5009372;28;20438;-56
2021/07/26 11:55:53;;;;;;;2.73;2.53;;;30.40;57.00;;;;;;5011387;28;20739;-56
2021/07/26 11:58:26;;;;;;;3.50;3.30;;;30.20;57.30;;;;;;5029231;28;20528;-56
2021/07/26 12:00:53;;;;;;;4.37;4.03;;;29.90;60.90;;;;;;5013502;28;20215;-56
2021/07/26 12:03:21;;;;;;;6.40;3.60;;;29.30;62.90;;;;;;5020056;28;20439;-56
2021/07/26 12:05:47;;;;;;;5.13;4.63;;;28.90;67.50;;;;;;5002167;28;20434;-57
2021/07/26 12:08:12;;;;;;;4.43;3.20;;;28.40;70.90;;;;;;5011650;28;20449;-56
2021/07/26 12:10:38;;;;;;;4.10;3.70;;;27.90;73.10;;;;;;5019371;28;20356;-55
2021/07/26 12:13:09;;;;;;;4.03;3.73;;;27.60;76.30;;;;;;5011184;28;20570;-56
2021/07/26 12:15:36;;;;;;;4.00;3.50;;;27.30;79.40;;;;;;5022765;28;20195;-56
2021/07/26 12:18:02;;;;;;;5.23;3.90;;;27.10;81.80;;;;;;5018677;28;20497;-56
2021/07/26 12:20:28;;;;;;;5.77;4.20;;;26.90;84.40;;;;;;5006421;28;20456;-55
2021/07/26 12:22:53;;;;;;;3.93;3.53;;;26.70;86.40;;;;;;5018610;28;20842;-56
2021/07/26 12:25:23;;;;;;;3.97;3.57;;;26.50;86.50;;;;;;5030622;28;20444;-55
2021/07/26 12:28:02;;;;;;;4.60;4.10;;;26.30;87.50;;;;;;5022198;28;20436;-60
2021/07/26 12:30:38;;;;;;;3.60;3.30;;;26.30;88.30;;;;;;5011332;28;20525;-58
2021/07/26 12:33:05;;;;;;;4.87;3.60;;;26.20;88.20;;;;;;5025161;28;20444;-59
2021/07/26 12:35:32;;;;;;;4.27;3.87;;;26.20;89.40;;;;;;5012353;28;20502;-58
2021/07/26 12:38:06;;;;;;;3.13;2.73;;;26.00;90.20;;;;;;5017562;28;20963;-60
2021/07/26 12:40:33;;;;;;;4.30;3.90;;;25.80;90.40;;;;;;5023605;28;20497;-59
2021/07/26 12:43:08;;;;;;;4.53;4.13;;;25.80;90.80;;;;;;5024337;28;20466;-59
2021/07/26 12:45:34;;;;;;;5.80;4.90;;;25.70;91.20;;;;;;5012891;28;20891;-60
2021/07/26 12:48:14;;;;;;;4.07;3.67;;;25.70;91.20;;;;;;5024601;28;20500;-60
2021/07/26 12:50:44;;;;;;;4.13;3.80;;;25.40;91.50;;;;;;5022488;28;20563;-61
2021/07/26 12:53:11;;;;;;;6.70;3.30;;;25.30;92.20;;;;;;5009842;28;20464;-61
2021/07/26 12:55:40;;;;;;;5.30;3.60;;;25.50;92.80;;;;;;5013590;28;20854;-60